Yosemite, KY

4:00 AM EST on December 26, 2014 (GMT -0500)
South Fork Furniture | Change Station
CLOSE
Current Station
Personal Weather Station
Location: Liberty, KY
Elevation: 810 ft
Nearby Weather Stations

Elev 810 ft 37.19 °N, 84.91 °W | Updated 3 minutes ago

Clear
Clear
26.3 °F
Feels Like 26 °F
N
0.0
Wind Variable Wind from NNW
Gusts 1.0 mph

Today
High -- | Low -- °F
--% Chance of Precip.
Yesterday
High -- | Low -- °F
Precip. -- in
7:52 AM 5:28 PM
Waxing Crescent, 24% visible
Pressure 30.24 in
Visibility 10.0 miles
Clouds Clear
Windchill 26 °F
Dew Point 25 °F
Humidity 96%
Rainfall 0.00 in
Snow Depth Not available.
UV 0 out of 12
Pollen .10 out of 12
Air Quality Not available.
Flu Activity Not available.
METAR KDVK 260855Z AUTO 20005KT 10SM CLR 00/00 A3024 RMK AO2

More Conditions Fewer Conditions

Pressure 30.24 in
Visibility 10.0 miles
Clouds Clear
Windchill 26 °F
Dew Point 25 °F
Humidity 96%
Rainfall 0.00 in
Snow Depth Not available.
UV 0 out of 12
Pollen .10 out of 12
Air Quality Not available.
Flu Activity Not available.
METAR KDVK 260855Z AUTO 20005KT 10SM CLR 00/00 A3024 RMK AO2

More Conditions Fewer Conditions

10-Day Weather Forecast

Almanac

Astronomy

Dec. 26, 2014 Rise Set
Actual Time
Civil Twilight
Nautical Twilight
Astronomical Twilight
Moon
Length of Visible Light
Length of Day
Tomorrow will be .
, % of the Moon is Illuminated

Today's Extremes

State Highs State Lows

Community

WunderPhotos

Upload Photos

1,780,568 photos uploaded!

WunderBlogs® & News

Nearby

Air Quality

  Air Quality AQ Index Pollutant
Not available.

Snow Depth

Station Depth Elevation

Earthquake Activity

City Distance Mag. Time & Date
Minimum magnitude displayed is 2.5.

Coastal Water Temperatures

Place Temperature

Nearby Weather Stations